EDT,Max TemperatureF,Mean TemperatureF,Min TemperatureF,Max Dew PointF,MeanDew PointF,Min DewpointF,Max Humidity, Mean Humidity, Min Humidity, Max Sea Level PressureIn, Mean Sea Level PressureIn, Min Sea Level PressureIn, Max VisibilityMiles, Mean VisibilityMiles, Min VisibilityMiles, Max Wind SpeedMPH, Mean Wind SpeedMPH, Max Gust SpeedMPH,PrecipitationIn, CloudCover, Events, WindDirDegrees
2012-9-1,87,76,64,67,62,54,90,69,32,30.11,30.01,29.92,10,10,8,13,4,,0.00,2,,157
2012-9-2,82,72,64,67,64,62,94,82,60,30.13,30.10,30.04,10,10,8,8,3,,0.16,6,Rain,118
2012-9-3,73,68,62,65,61,57,94,81,59,30.22,30.17,30.12,10,10,8,10,5,,0.00,7,,86
2012-9-4,78,72,66,72,68,60,94,86,73,30.14,29.99,29.86,10,10,6,10,5,16,0.05,7,Rain,140
2012-9-5,75,75,75,72,72,72,90,89,89,29.84,29.83,29.82,7,4,2,13,10,20,0.35,8,Rain-Thunderstorm,190
2012-9-6,78,71,64,66,65,63,94,76,61,29.94,29.92,29.90,10,9,2,6,2,,0.00,4,,180
2012-9-7,84,74,64,72,66,50,94,70,32,29.98,29.93,29.90,10,10,10,8,3,,0.00,1,,160
2012-9-8,78,71,64,72,67,55,94,86,73,29.86,29.73,29.62,10,6,1,23,8,36,0.00,7,Rain,196
2012-9-9,73,66,59,57,55,52,94,68,47,29.90,29.86,29.82,10,9,3,10,3,18,0.00,1,Rain,320
2012-9-10,66,58,51,52,49,46,88,65,49,30.02,30.00,29.97,10,10,10,13,5,,0.00,2,,330
2012-9-11,,,,,,,,,,,,,,,,,,,,,,
2012-9-12,,,,,,,,,,,,,,,,,,,,,,
2012-9-13,78,70,59,58,56,54,90,63,43,30.32,30.30,30.29,10,10,10,8,5,,0.00,0,,214
2012-9-14,79,65,53,60,57,51,96,74,50,30.30,30.20,30.10,10,10,7,8,2,,0.00,0,,199
2012-9-15,71,60,51,59,52,47,93,73,46,30.14,30.10,30.06,10,10,8,16,5,23,0.04,3,Rain,331
2012-9-16,71,58,45,51,47,43,93,71,39,30.14,30.09,30.05,10,10,10,9,3,,0.00,1,,251
2012-9-17,75,60,45,54,50,43,93,70,44,30.13,30.08,30.04,10,10,10,7,2,,0.00,0,,184
2012-9-18,73,65,57,70,64,53,94,88,81,30.05,29.85,29.66,10,6,1,22,7,38,1.54,8,Rain-Thunderstorm,166
2012-9-19,68,58,46,65,52,42,94,74,40,30.21,29.94,29.74,10,10,7,13,7,26,0.05,5,Rain,308
2012-9-20,66,53,42,54,48,40,93,77,64,30.25,30.19,30.15,10,10,10,12,3,16,0.00,4,,114
2012-9-21,66,58,50,54,50,48,94,86,52,30.15,30.11,30.04,10,9,2,6,1,,0.00,3,,56
2012-9-22,70,60,51,65,56,50,100,87,73,30.04,29.94,29.81,10,10,5,14,2,25,0.06,7,Rain,158
2012-9-23,66,56,45,58,50,41,100,83,40,30.13,29.98,29.86,10,6,1,12,2,20,0.00,4,,302
2012-9-24,64,52,42,46,41,36,93,71,37,30.17,30.14,30.11,10,10,10,12,2,18,0.00,3,,245
2012-9-25,70,54,39,54,44,38,93,68,36,30.20,30.16,30.13,10,10,10,14,4,25,0.00,1,,195
2012-9-26,71,65,59,62,58,53,93,79,68,30.14,30.08,30.02,10,10,7,9,4,,0.02,7,Rain,221
2012-9-27,73,66,59,61,56,48,93,73,48,30.21,30.15,30.05,10,9,6,9,4,,0.00,6,Rain,26
2012-9-28,60,58,55,56,54,46,96,88,63,30.20,30.08,29.97,10,9,3,13,6,22,0.36,8,Rain,60
2012-9-29,62,58,55,54,53,52,94,86,72,29.96,29.92,29.89,10,8,1,7,3,,0.39,8,Rain,1
2012-9-30,66,58,51,54,51,46,94,83,48,29.90,29.84,29.77,10,10,6,9,2,,0.01,5,,278